AirNav   Duncan Aviation - Near you to keep you flying
 
 459 users online  

12CN Richter Aviation Airport
Maxwell, California, USA

GOING TO MAXWELL?


FAA INFORMATION EFFECTIVE 03 NOVEMBER 2022

Location

FAA Identifier: 12CN
Lat/Long: 39-16-06.2600N 122-07-00.4150W
39-16.104333N 122-07.006917W
39.2684056,-122.1167819
(estimated)
Elevation: 57 ft. / 17 m (estimated)
From city: 4 miles E of MAXWELL, CA
Time zone: UTC -8 (UTC -7 during Daylight Saving Time)
Zip code: 95932

Airport Operations

Airport use: Private use. Permission required prior to landing
Activation date: 12/2012
Control tower: no
ARTCC: OAKLAND CENTER
FSS: RANCHO MURIETA FLIGHT SERVICE STATION
Attendance: 0800-1700
Wind indicator: yes
Segmented circle: no

Nearby radio navigation aids

VOR radial/distance  VOR name  Freq  Var
ILAr323/12.5WILLIAMS VORTAC114.4018E
MYVr276/27.3MARYSVILLE VOR/DME110.8016E

Airport Services

Runway Information

Runway 16/34

Dimensions: 2856 x 40 ft. / 871 x 12 m
Surface: asphalt
RUNWAY 16  RUNWAY 34
Latitude: 39-16.339500N39-15.869167N
Longitude: 122-07.012833W122-07.001000W
Elevation: 57.0 ft.56.0 ft.
Traffic pattern: leftleft
Touchdown point: yes, no lightsyes, no lights
Obstructions: 20 ft. bldg, 300 ft. from runwaynone

Airport Ownership and Management from official FAA records

Ownership: Privately-owned
Owner: RICHARD & BRENDA RICHTER
PO BOX 612
MAXWELL, CA 95955
Phone 530-438-2141
Manager: RICHARD & BRENDA RICHTER
PO BOX 612
MAXWELL, CA 95955
Phone 530-438-2141
EMAIL: RICHTERS1@FRONTIERNET.NET; OTR CTC: NICHOLAS RICHTER 530-701-9069.

Airport Operational Statistics

Aircraft based on the field: 8
Single engine airplanes: 8
    

Additional Remarks

FOR CD CTC OAKLAND ARTCC AT 510-745-3380.
(CONTACT TITLE) EMAIL: RICHTERS1@FRONTIERNET.NET

Instrument Procedures

There are no published instrument procedures at 12CN.

Some nearby airports with instrument procedures:

O08 - Colusa County Airport (8 nm SE)
KWLW - Willows/Glenn County Airport (16 nm N)
KOVE - Oroville Municipal Airport (26 nm NE)
O37 - Haigh Field Airport (27 nm N)
KMYV - Yuba County Airport (27 nm E)
 
Loc | Ops | Rwys | IFR | FBO | Links
Com | Nav | Svcs | Stats | Notes

Sonoma Jet Center
 
Aerial photo
No photo
 
Airport distance calculator
Flying to Richter Aviation Airport? Find the distance to fly.

From to 12CN

Sunrise and sunset
Times for 28-Nov-2022
 Local
(UTC-8)
 Zulu
(UTC)
Morning civil twilight06:3814:38
Sunrise07:0715:07
Sunset16:4600:46
Evening civil twilight17:1501:15

Current date and time
Zulu (UTC)  28-Nov-2022 10:45:35
Local (UTC-8)  28-Nov-2022 02:45:35
 
METAR
KOVE 
27nm NE 
280953Z AUTO 03004KT 10SM CLR 07/03 A2999 RMK AO2 SLP157 T00720028
KBAB 
33nm E 
280555Z AUTO 10005KT 10SM CLR 08/03 A2998 RMK AO2 SLP155 T00840028 10162 20065 $
KCIC 
34nm NE 
281035Z AUTO 27004KT 10SM CLR 06/02 A2998 RMK AO1
KLHM 
42nm SE 
281035Z AUTO 06004KT 10SM CLR 02/01 A2996 RMK AO1
KSMF 
42nm SE 
280953Z 33005KT 10SM CLR 05/01 A2997 RMK AO2 SLP144 T00500011 $
KDWA 
43nm S 
281035Z AUTO 35006KT 10SM CLR 04/01 A2998 RMK AO2
KMCC 
49nm SE 
281035Z AUTO 33005KT 10SM CLR 05/02 A2997 RMK AO2
TAF
NOTAMs
Click for the latest NOTAMs
NOTAMs are issued by the DoD/FAA and will open in a separate window not controlled by AirNav.

 

 
 

Would you like to see your business listed on this page?

 If your business provides an interesting product or service to pilots, flight crews, aircraft, or users of the Richter Aviation Airport, you should consider listing it here.  To start the listing process, click on the button below
 
Add a business
 

Other Pages about Richter Aviation Airport

Update a link
 
Copyright © AirNav, LLC. All rights reserved. Privacy Policy  Contact